Home PIREPS Pireps

Flight BEL12433TR

  • Submitted By: David Chenery
  • Departure Airport: Richmond International Airport (KRIC)
  • Arrival Airport: Madrid / Barajas (LEMD)
  • Aircraft: YOUR CHOICE (YC)
  • Flight Time: 07.18
  • Date Submitted: 14/02/2018
  • Status: Accepted
Flight Details
Gross Revenue:
(25 load / € 0.00 per unit
€ 0.00
Fuel Cost:
(12437 fuel used @ 4.59 / unit)
€ 57,085.83

Additional Log Information:

View Log

Aircraft Used in flight is Boeing 737-800_SAS
00:06 Brakes are On
00:10 Brakes are Released
00:11 You Took off @ 183 Knots and Flaps at Position 3
Departure Weather
KRIC 132354Z 10004KT 10SM OVC041 03/M02 A3067 RMK AO2 SLP391 60000 T00331022 10044 20033 58010rn
00:11 Landing Gear Up @ 190 Knots and 190 Feet
00:11 Below 10000 feet you are not allowed to go over 250 knots
07:13 Below FL100 you need to turn on the landing lights
07:22 Landing Gear Down @ 187 Knots and 3950 Feet
07:23 You Landed @ 121 Knots and with 0 Vertical Speed
Arrival Weather
LEMD 140700Z 22011KT 150V240 9999 SCT045 07/05 Q1019 NOSIGrn
07:24 Brakes are On
07:24 Brussels Bel-Track1.0.1.2

Route Map

Corporate About Us Our Team Vacancies Information Fleet Route Network Rules and Regulations Operations Flight Schedules Event Center Tours Partners IVAO Vatsim Acars dev FSCB

fb Users Online Belgium Marc Claus, South Africa Marc Toussaint,
4 Pilot(s) and 90 Guest(s) Online
CMS by phpVMS - Design by Crazycreatives.com - Copyright © 2018 - Brussels Airlines Virtual